PGRO/ROP METAR and TAF weather

Enter ICAO airport designator
Station Type Date Time Source
PGRO METAR 2021/03/06 01:50 UTC NOAA

PGRO 060150Z 04012G22KT 7SM SCT018 29/23 A2992


Station Type Date Time Source
PGRO Decoded METAR 2021/03/06 01:50 UTC NOAA

Rota Island, N. Mariana Is, Rota International Airport, GU, United States (PGRO) 14-11N 145-15E
Mar 05, 2021 - 08:50 PM EST / 2021.03.06 0150 UTC
Wind: from the NE (040 degrees) at 14 MPH (12 KT) gusting to 25 MPH (22 KT):0
Visibility: 7 mile(s):0
Sky conditions: partly cloudy
Temperature: 84 F (29 C)
Dew Point: 73 F (23 C)
Relative Humidity: 70%
Pressure (altimeter): 29.92 in. Hg (1013 hPa)
ob: PGRO 060150Z 04012G22KT 7SM SCT018 29/23 A2992
cycle: 2

Station Type Date Time Source
PGRO TAF 2021/03/05 21:40 UTC NOAA

TAF PGRO 052038Z 0521/0618 07008KT P6SM FEW025 FEW050
FM060000 07011G18KT P6SM FEW025 SCT050
FM060900 07009KT P6SM FEW020 SCT050

Example: see airport list